<?xml version="1.0" encoding="UTF-8" standalone="no" ?>
<gpx xmlns="http://www.topografix.com/GPX/1/1" xmlns:xsi="http://www.w3.org/2001/XMLSchema-instance" xsi:schemaLocation="http://www.topografix.com/GPX/1/1 http://www.topografix.com/GPX/1/1/gpx.xsd" version="1.1" creator="VisuGPX - https://www.visugpx.com">
  <metadata>
    <name>Durfort Berniquaut</name>
    <desc><![CDATA[Belle randonnée au départ de Durfort pour monter à l"oppidum de Berniquaut ouvrant un magnifique panorama sur le Lauragais. Redescente par des sentiers forestiers très agréables. ]]></desc>
  </metadata>
  <trk>
    <name><![CDATA[Durfort Berniquaut 6,8km Philippe-18688101]]></name>
    <trkseg>
      <trkpt lat="43.43955" lon="2.06534">
        <ele>285</ele>
        <time>2024-04-06T08:04:45Z</time>
      </trkpt>
      <trkpt lat="43.44014" lon="2.06456">
        <ele>284</ele>
        <time>2024-04-06T08:05:50Z</time>
      </trkpt>
      <trkpt lat="43.44018" lon="2.06451">
        <ele>284</ele>
        <time>2024-04-06T08:05:55Z</time>
      </trkpt>
      <trkpt lat="43.44022" lon="2.06457">
        <ele>285</ele>
        <time>2024-04-06T08:06:00Z</time>
      </trkpt>
      <trkpt lat="43.44041" lon="2.06446">
        <ele>287</ele>
        <time>2024-04-06T08:06:16Z</time>
      </trkpt>
      <trkpt lat="43.44057" lon="2.06439">
        <ele>288</ele>
        <time>2024-04-06T08:06:29Z</time>
      </trkpt>
      <trkpt lat="43.44084" lon="2.06433">
        <ele>291</ele>
        <time>2024-04-06T08:06:51Z</time>
      </trkpt>
      <trkpt lat="43.44104" lon="2.06425">
        <ele>293</ele>
        <time>2024-04-06T08:07:08Z</time>
      </trkpt>
      <trkpt lat="43.44129" lon="2.06408">
        <ele>294</ele>
        <time>2024-04-06T08:07:30Z</time>
      </trkpt>
      <trkpt lat="43.44145" lon="2.064">
        <ele>296</ele>
        <time>2024-04-06T08:07:44Z</time>
      </trkpt>
      <trkpt lat="43.44208" lon="2.06383">
        <ele>303</ele>
        <time>2024-04-06T08:08:35Z</time>
      </trkpt>
      <trkpt lat="43.44224" lon="2.06382">
        <ele>306</ele>
        <time>2024-04-06T08:08:48Z</time>
      </trkpt>
      <trkpt lat="43.44242" lon="2.06389">
        <ele>311</ele>
        <time>2024-04-06T08:09:03Z</time>
      </trkpt>
      <trkpt lat="43.44253" lon="2.0639">
        <ele>313</ele>
        <time>2024-04-06T08:09:12Z</time>
      </trkpt>
      <trkpt lat="43.44261" lon="2.06389">
        <ele>314</ele>
        <time>2024-04-06T08:09:18Z</time>
      </trkpt>
      <trkpt lat="43.44296" lon="2.06358">
        <ele>308</ele>
        <time>2024-04-06T08:09:52Z</time>
      </trkpt>
      <trkpt lat="43.44295" lon="2.06362">
        <ele>309</ele>
        <time>2024-04-06T08:09:54Z</time>
      </trkpt>
      <trkpt lat="43.44296" lon="2.06358">
        <ele>308</ele>
        <time>2024-04-06T08:09:57Z</time>
      </trkpt>
      <trkpt lat="43.44313" lon="2.06341">
        <ele>304</ele>
        <time>2024-04-06T08:10:14Z</time>
      </trkpt>
      <trkpt lat="43.44323" lon="2.06336">
        <ele>303</ele>
        <time>2024-04-06T08:10:22Z</time>
      </trkpt>
      <trkpt lat="43.44398" lon="2.06309">
        <ele>299</ele>
        <time>2024-04-06T08:11:24Z</time>
      </trkpt>
      <trkpt lat="43.44471" lon="2.063">
        <ele>296</ele>
        <time>2024-04-06T08:12:23Z</time>
      </trkpt>
      <trkpt lat="43.44519" lon="2.063">
        <ele>294</ele>
        <time>2024-04-06T08:13:01Z</time>
      </trkpt>
      <trkpt lat="43.44541" lon="2.06301">
        <ele>293</ele>
        <time>2024-04-06T08:13:19Z</time>
      </trkpt>
      <trkpt lat="43.44552" lon="2.06305">
        <ele>292</ele>
        <time>2024-04-06T08:13:28Z</time>
      </trkpt>
      <trkpt lat="43.44572" lon="2.0632">
        <ele>294</ele>
        <time>2024-04-06T08:13:46Z</time>
      </trkpt>
      <trkpt lat="43.44589" lon="2.06341">
        <ele>296</ele>
        <time>2024-04-06T08:14:04Z</time>
      </trkpt>
      <trkpt lat="43.44596" lon="2.06346">
        <ele>296</ele>
        <time>2024-04-06T08:14:11Z</time>
      </trkpt>
      <trkpt lat="43.44635" lon="2.06364">
        <ele>295</ele>
        <time>2024-04-06T08:14:44Z</time>
      </trkpt>
      <trkpt lat="43.44683" lon="2.06377">
        <ele>292</ele>
        <time>2024-04-06T08:15:23Z</time>
      </trkpt>
      <trkpt lat="43.44682" lon="2.0638">
        <ele>292</ele>
        <time>2024-04-06T08:15:25Z</time>
      </trkpt>
      <trkpt lat="43.44653" lon="2.06483">
        <ele>309</ele>
        <time>2024-04-06T08:16:29Z</time>
      </trkpt>
      <trkpt lat="43.44635" lon="2.06526">
        <ele>319</ele>
        <time>2024-04-06T08:16:58Z</time>
      </trkpt>
      <trkpt lat="43.44633" lon="2.06538">
        <ele>321</ele>
        <time>2024-04-06T08:17:05Z</time>
      </trkpt>
      <trkpt lat="43.44634" lon="2.06553">
        <ele>323</ele>
        <time>2024-04-06T08:17:14Z</time>
      </trkpt>
      <trkpt lat="43.44657" lon="2.06621">
        <ele>327</ele>
        <time>2024-04-06T08:17:57Z</time>
      </trkpt>
      <trkpt lat="43.44671" lon="2.06671">
        <ele>331</ele>
        <time>2024-04-06T08:18:29Z</time>
      </trkpt>
      <trkpt lat="43.44672" lon="2.06725">
        <ele>337</ele>
        <time>2024-04-06T08:19:00Z</time>
      </trkpt>
      <trkpt lat="43.44678" lon="2.06746">
        <ele>338</ele>
        <time>2024-04-06T08:19:13Z</time>
      </trkpt>
      <trkpt lat="43.44678" lon="2.06748">
        <ele>338</ele>
        <time>2024-04-06T08:19:14Z</time>
      </trkpt>
      <trkpt lat="43.44675" lon="2.0675">
        <ele>339</ele>
        <time>2024-04-06T08:19:17Z</time>
      </trkpt>
      <trkpt lat="43.44669" lon="2.06743">
        <ele>340</ele>
        <time>2024-04-06T08:19:23Z</time>
      </trkpt>
      <trkpt lat="43.44655" lon="2.06712">
        <ele>341</ele>
        <time>2024-04-06T08:19:44Z</time>
      </trkpt>
      <trkpt lat="43.44636" lon="2.06688">
        <ele>342</ele>
        <time>2024-04-06T08:20:05Z</time>
      </trkpt>
      <trkpt lat="43.44611" lon="2.06673">
        <ele>345</ele>
        <time>2024-04-06T08:20:27Z</time>
      </trkpt>
      <trkpt lat="43.44603" lon="2.06671">
        <ele>347</ele>
        <time>2024-04-06T08:20:33Z</time>
      </trkpt>
      <trkpt lat="43.44564" lon="2.06676">
        <ele>358</ele>
        <time>2024-04-06T08:21:05Z</time>
      </trkpt>
      <trkpt lat="43.44552" lon="2.06671">
        <ele>361</ele>
        <time>2024-04-06T08:21:15Z</time>
      </trkpt>
      <trkpt lat="43.44545" lon="2.06666">
        <ele>362</ele>
        <time>2024-04-06T08:21:21Z</time>
      </trkpt>
      <trkpt lat="43.4454" lon="2.06659">
        <ele>363</ele>
        <time>2024-04-06T08:21:27Z</time>
      </trkpt>
      <trkpt lat="43.44538" lon="2.06651">
        <ele>363</ele>
        <time>2024-04-06T08:21:32Z</time>
      </trkpt>
      <trkpt lat="43.44546" lon="2.06611">
        <ele>355</ele>
        <time>2024-04-06T08:21:56Z</time>
      </trkpt>
      <trkpt lat="43.44547" lon="2.06594">
        <ele>353</ele>
        <time>2024-04-06T08:22:06Z</time>
      </trkpt>
      <trkpt lat="43.44544" lon="2.06584">
        <ele>352</ele>
        <time>2024-04-06T08:22:12Z</time>
      </trkpt>
      <trkpt lat="43.44536" lon="2.06573">
        <ele>353</ele>
        <time>2024-04-06T08:22:21Z</time>
      </trkpt>
      <trkpt lat="43.44483" lon="2.06543">
        <ele>361</ele>
        <time>2024-04-06T08:23:07Z</time>
      </trkpt>
      <trkpt lat="43.44475" lon="2.06543">
        <ele>362</ele>
        <time>2024-04-06T08:23:13Z</time>
      </trkpt>
      <trkpt lat="43.44473" lon="2.06549">
        <ele>364</ele>
        <time>2024-04-06T08:23:17Z</time>
      </trkpt>
      <trkpt lat="43.44475" lon="2.06555">
        <ele>365</ele>
        <time>2024-04-06T08:23:21Z</time>
      </trkpt>
      <trkpt lat="43.44487" lon="2.06561">
        <ele>364</ele>
        <time>2024-04-06T08:23:31Z</time>
      </trkpt>
      <trkpt lat="43.44506" lon="2.0658">
        <ele>364</ele>
        <time>2024-04-06T08:23:50Z</time>
      </trkpt>
      <trkpt lat="43.44509" lon="2.06592">
        <ele>365</ele>
        <time>2024-04-06T08:23:57Z</time>
      </trkpt>
      <trkpt lat="43.44511" lon="2.06602">
        <ele>366</ele>
        <time>2024-04-06T08:24:04Z</time>
      </trkpt>
      <trkpt lat="43.4451" lon="2.06612">
        <ele>367</ele>
        <time>2024-04-06T08:24:09Z</time>
      </trkpt>
      <trkpt lat="43.44502" lon="2.06626">
        <ele>371</ele>
        <time>2024-04-06T08:24:20Z</time>
      </trkpt>
      <trkpt lat="43.44488" lon="2.06639">
        <ele>377</ele>
        <time>2024-04-06T08:24:33Z</time>
      </trkpt>
      <trkpt lat="43.44469" lon="2.06662">
        <ele>387</ele>
        <time>2024-04-06T08:24:54Z</time>
      </trkpt>
      <trkpt lat="43.4446" lon="2.06678">
        <ele>392</ele>
        <time>2024-04-06T08:25:05Z</time>
      </trkpt>
      <trkpt lat="43.44457" lon="2.06692">
        <ele>395</ele>
        <time>2024-04-06T08:25:14Z</time>
      </trkpt>
      <trkpt lat="43.44457" lon="2.06699">
        <ele>396</ele>
        <time>2024-04-06T08:25:18Z</time>
      </trkpt>
      <trkpt lat="43.44459" lon="2.06707">
        <ele>396</ele>
        <time>2024-04-06T08:25:23Z</time>
      </trkpt>
      <trkpt lat="43.44481" lon="2.06731">
        <ele>392</ele>
        <time>2024-04-06T08:25:45Z</time>
      </trkpt>
      <trkpt lat="43.44491" lon="2.06745">
        <ele>390</ele>
        <time>2024-04-06T08:25:57Z</time>
      </trkpt>
      <trkpt lat="43.44498" lon="2.06761">
        <ele>391</ele>
        <time>2024-04-06T08:26:08Z</time>
      </trkpt>
      <trkpt lat="43.44501" lon="2.0678">
        <ele>393</ele>
        <time>2024-04-06T08:26:19Z</time>
      </trkpt>
      <trkpt lat="43.44502" lon="2.06832">
        <ele>402</ele>
        <time>2024-04-06T08:26:49Z</time>
      </trkpt>
      <trkpt lat="43.44506" lon="2.06839">
        <ele>403</ele>
        <time>2024-04-06T08:26:54Z</time>
      </trkpt>
      <trkpt lat="43.4451" lon="2.06841">
        <ele>403</ele>
        <time>2024-04-06T08:26:58Z</time>
      </trkpt>
      <trkpt lat="43.44515" lon="2.06844">
        <ele>403</ele>
        <time>2024-04-06T08:27:02Z</time>
      </trkpt>
      <trkpt lat="43.44508" lon="2.0686">
        <ele>407</ele>
        <time>2024-04-06T08:27:13Z</time>
      </trkpt>
      <trkpt lat="43.445" lon="2.0687">
        <ele>410</ele>
        <time>2024-04-06T08:27:22Z</time>
      </trkpt>
      <trkpt lat="43.44496" lon="2.06889">
        <ele>416</ele>
        <time>2024-04-06T08:27:33Z</time>
      </trkpt>
      <trkpt lat="43.44489" lon="2.06907">
        <ele>421</ele>
        <time>2024-04-06T08:27:45Z</time>
      </trkpt>
      <trkpt lat="43.44508" lon="2.06892">
        <ele>413</ele>
        <time>2024-04-06T08:28:02Z</time>
      </trkpt>
      <trkpt lat="43.44481" lon="2.06915">
        <ele>425</ele>
        <time>2024-04-06T08:28:28Z</time>
      </trkpt>
      <trkpt lat="43.44481" lon="2.0692">
        <ele>426</ele>
        <time>2024-04-06T08:28:31Z</time>
      </trkpt>
      <trkpt lat="43.44483" lon="2.06922">
        <ele>425</ele>
        <time>2024-04-06T08:28:33Z</time>
      </trkpt>
      <trkpt lat="43.44492" lon="2.06922">
        <ele>423</ele>
        <time>2024-04-06T08:28:40Z</time>
      </trkpt>
      <trkpt lat="43.44516" lon="2.06907">
        <ele>415</ele>
        <time>2024-04-06T08:29:01Z</time>
      </trkpt>
      <trkpt lat="43.44527" lon="2.06904">
        <ele>412</ele>
        <time>2024-04-06T08:29:10Z</time>
      </trkpt>
      <trkpt lat="43.44534" lon="2.06905">
        <ele>410</ele>
        <time>2024-04-06T08:29:16Z</time>
      </trkpt>
      <trkpt lat="43.44541" lon="2.06909">
        <ele>409</ele>
        <time>2024-04-06T08:29:22Z</time>
      </trkpt>
      <trkpt lat="43.44545" lon="2.06924">
        <ele>410</ele>
        <time>2024-04-06T08:29:31Z</time>
      </trkpt>
      <trkpt lat="43.44544" lon="2.06932">
        <ele>411</ele>
        <time>2024-04-06T08:29:36Z</time>
      </trkpt>
      <trkpt lat="43.4454" lon="2.06941">
        <ele>412</ele>
        <time>2024-04-06T08:29:42Z</time>
      </trkpt>
      <trkpt lat="43.44534" lon="2.06947">
        <ele>414</ele>
        <time>2024-04-06T08:29:48Z</time>
      </trkpt>
      <trkpt lat="43.4451" lon="2.06962">
        <ele>423</ele>
        <time>2024-04-06T08:30:09Z</time>
      </trkpt>
      <trkpt lat="43.44496" lon="2.06967">
        <ele>427</ele>
        <time>2024-04-06T08:30:20Z</time>
      </trkpt>
      <trkpt lat="43.44483" lon="2.06967">
        <ele>430</ele>
        <time>2024-04-06T08:30:31Z</time>
      </trkpt>
      <trkpt lat="43.4446" lon="2.06966">
        <ele>436</ele>
        <time>2024-04-06T08:30:49Z</time>
      </trkpt>
      <trkpt lat="43.44449" lon="2.06954">
        <ele>438</ele>
        <time>2024-04-06T08:31:01Z</time>
      </trkpt>
      <trkpt lat="43.44429" lon="2.06907">
        <ele>439</ele>
        <time>2024-04-06T08:31:32Z</time>
      </trkpt>
      <trkpt lat="43.44408" lon="2.0686">
        <ele>438</ele>
        <time>2024-04-06T08:32:04Z</time>
      </trkpt>
      <trkpt lat="43.44393" lon="2.06841">
        <ele>440</ele>
        <time>2024-04-06T08:32:21Z</time>
      </trkpt>
      <trkpt lat="43.44367" lon="2.06818">
        <ele>443</ele>
        <time>2024-04-06T08:32:45Z</time>
      </trkpt>
      <trkpt lat="43.44343" lon="2.06805">
        <ele>447</ele>
        <time>2024-04-06T08:33:06Z</time>
      </trkpt>
      <trkpt lat="43.44334" lon="2.06799">
        <ele>449</ele>
        <time>2024-04-06T08:33:14Z</time>
      </trkpt>
      <trkpt lat="43.44327" lon="2.06801">
        <ele>450</ele>
        <time>2024-04-06T08:33:20Z</time>
      </trkpt>
      <trkpt lat="43.44327" lon="2.0681">
        <ele>452</ele>
        <time>2024-04-06T08:33:25Z</time>
      </trkpt>
      <trkpt lat="43.44343" lon="2.06837">
        <ele>453</ele>
        <time>2024-04-06T08:33:45Z</time>
      </trkpt>
      <trkpt lat="43.44373" lon="2.0691">
        <ele>455</ele>
        <time>2024-04-06T08:34:34Z</time>
      </trkpt>
      <trkpt lat="43.44378" lon="2.06935">
        <ele>456</ele>
        <time>2024-04-06T08:34:49Z</time>
      </trkpt>
      <trkpt lat="43.44377" lon="2.06952">
        <ele>457</ele>
        <time>2024-04-06T08:34:59Z</time>
      </trkpt>
      <trkpt lat="43.44376" lon="2.06998">
        <ele>459</ele>
        <time>2024-04-06T08:35:26Z</time>
      </trkpt>
      <trkpt lat="43.44372" lon="2.07012">
        <ele>461</ele>
        <time>2024-04-06T08:35:34Z</time>
      </trkpt>
      <trkpt lat="43.44365" lon="2.07013">
        <ele>463</ele>
        <time>2024-04-06T08:35:40Z</time>
      </trkpt>
      <trkpt lat="43.4436" lon="2.07002">
        <ele>463</ele>
        <time>2024-04-06T08:35:48Z</time>
      </trkpt>
      <trkpt lat="43.44358" lon="2.06947">
        <ele>461</ele>
        <time>2024-04-06T08:36:20Z</time>
      </trkpt>
      <trkpt lat="43.44353" lon="2.06936">
        <ele>462</ele>
        <time>2024-04-06T08:36:27Z</time>
      </trkpt>
      <trkpt lat="43.44318" lon="2.06916">
        <ele>469</ele>
        <time>2024-04-06T08:36:58Z</time>
      </trkpt>
      <trkpt lat="43.443" lon="2.06916">
        <ele>471</ele>
        <time>2024-04-06T08:37:12Z</time>
      </trkpt>
      <trkpt lat="43.44288" lon="2.06922">
        <ele>473</ele>
        <time>2024-04-06T08:37:22Z</time>
      </trkpt>
      <trkpt lat="43.44285" lon="2.06927">
        <ele>474</ele>
        <time>2024-04-06T08:37:26Z</time>
      </trkpt>
      <trkpt lat="43.44262" lon="2.06944">
        <ele>478</ele>
        <time>2024-04-06T08:37:47Z</time>
      </trkpt>
      <trkpt lat="43.44248" lon="2.06945">
        <ele>480</ele>
        <time>2024-04-06T08:37:58Z</time>
      </trkpt>
      <trkpt lat="43.44241" lon="2.0695">
        <ele>480</ele>
        <time>2024-04-06T08:38:04Z</time>
      </trkpt>
      <trkpt lat="43.44198" lon="2.06988">
        <ele>481</ele>
        <time>2024-04-06T08:38:45Z</time>
      </trkpt>
      <trkpt lat="43.44188" lon="2.06997">
        <ele>481</ele>
        <time>2024-04-06T08:38:55Z</time>
      </trkpt>
      <trkpt lat="43.44183" lon="2.0701">
        <ele>481</ele>
        <time>2024-04-06T08:39:03Z</time>
      </trkpt>
      <trkpt lat="43.44183" lon="2.07017">
        <ele>481</ele>
        <time>2024-04-06T08:39:07Z</time>
      </trkpt>
      <trkpt lat="43.44202" lon="2.0709">
        <ele>483</ele>
        <time>2024-04-06T08:39:53Z</time>
      </trkpt>
      <trkpt lat="43.44214" lon="2.07165">
        <ele>490</ele>
        <time>2024-04-06T08:40:37Z</time>
      </trkpt>
      <trkpt lat="43.44223" lon="2.07235">
        <ele>502</ele>
        <time>2024-04-06T08:41:19Z</time>
      </trkpt>
      <trkpt lat="43.44226" lon="2.07274">
        <ele>508</ele>
        <time>2024-04-06T08:41:41Z</time>
      </trkpt>
      <trkpt lat="43.44224" lon="2.07281">
        <ele>509</ele>
        <time>2024-04-06T08:41:46Z</time>
      </trkpt>
      <trkpt lat="43.44221" lon="2.07291">
        <ele>510</ele>
        <time>2024-04-06T08:41:52Z</time>
      </trkpt>
      <trkpt lat="43.44223" lon="2.07312">
        <ele>513</ele>
        <time>2024-04-06T08:42:04Z</time>
      </trkpt>
      <trkpt lat="43.4422" lon="2.07313">
        <ele>513</ele>
        <time>2024-04-06T08:42:07Z</time>
      </trkpt>
      <trkpt lat="43.44217" lon="2.07317">
        <ele>513</ele>
        <time>2024-04-06T08:42:10Z</time>
      </trkpt>
      <trkpt lat="43.44218" lon="2.07322">
        <ele>514</ele>
        <time>2024-04-06T08:42:13Z</time>
      </trkpt>
      <trkpt lat="43.44219" lon="2.07326">
        <ele>515</ele>
        <time>2024-04-06T08:42:16Z</time>
      </trkpt>
      <trkpt lat="43.44219" lon="2.0735">
        <ele>520</ele>
        <time>2024-04-06T08:42:30Z</time>
      </trkpt>
      <trkpt lat="43.44215" lon="2.07349">
        <ele>519</ele>
        <time>2024-04-06T08:42:33Z</time>
      </trkpt>
      <trkpt lat="43.44213" lon="2.07362">
        <ele>522</ele>
        <time>2024-04-06T08:42:41Z</time>
      </trkpt>
      <trkpt lat="43.44214" lon="2.07366">
        <ele>523</ele>
        <time>2024-04-06T08:42:43Z</time>
      </trkpt>
      <trkpt lat="43.44213" lon="2.07372">
        <ele>524</ele>
        <time>2024-04-06T08:42:47Z</time>
      </trkpt>
      <trkpt lat="43.44209" lon="2.07371">
        <ele>523</ele>
        <time>2024-04-06T08:42:50Z</time>
      </trkpt>
      <trkpt lat="43.44206" lon="2.07373">
        <ele>524</ele>
        <time>2024-04-06T08:42:53Z</time>
      </trkpt>
      <trkpt lat="43.44206" lon="2.0741">
        <ele>533</ele>
        <time>2024-04-06T08:43:14Z</time>
      </trkpt>
      <trkpt lat="43.44198" lon="2.07433">
        <ele>536</ele>
        <time>2024-04-06T08:43:29Z</time>
      </trkpt>
      <trkpt lat="43.44186" lon="2.07448">
        <ele>538</ele>
        <time>2024-04-06T08:43:42Z</time>
      </trkpt>
      <trkpt lat="43.44183" lon="2.07466">
        <ele>540</ele>
        <time>2024-04-06T08:43:53Z</time>
      </trkpt>
      <trkpt lat="43.44183" lon="2.07497">
        <ele>545</ele>
        <time>2024-04-06T08:44:11Z</time>
      </trkpt>
      <trkpt lat="43.44186" lon="2.07511">
        <ele>546</ele>
        <time>2024-04-06T08:44:19Z</time>
      </trkpt>
      <trkpt lat="43.44185" lon="2.07537">
        <ele>548</ele>
        <time>2024-04-06T08:44:34Z</time>
      </trkpt>
      <trkpt lat="43.44174" lon="2.07559">
        <ele>550</ele>
        <time>2024-04-06T08:44:50Z</time>
      </trkpt>
      <trkpt lat="43.44165" lon="2.07557">
        <ele>549</ele>
        <time>2024-04-06T08:44:57Z</time>
      </trkpt>
      <trkpt lat="43.44156" lon="2.07564">
        <ele>545</ele>
        <time>2024-04-06T08:45:05Z</time>
      </trkpt>
      <trkpt lat="43.44155" lon="2.07574">
        <ele>545</ele>
        <time>2024-04-06T08:45:11Z</time>
      </trkpt>
      <trkpt lat="43.4416" lon="2.07581">
        <ele>549</ele>
        <time>2024-04-06T08:45:17Z</time>
      </trkpt>
      <trkpt lat="43.4416" lon="2.07589">
        <ele>549</ele>
        <time>2024-04-06T08:45:22Z</time>
      </trkpt>
      <trkpt lat="43.44158" lon="2.07598">
        <ele>548</ele>
        <time>2024-04-06T08:45:27Z</time>
      </trkpt>
      <trkpt lat="43.44159" lon="2.07621">
        <ele>549</ele>
        <time>2024-04-06T08:45:40Z</time>
      </trkpt>
      <trkpt lat="43.44152" lon="2.07642">
        <ele>547</ele>
        <time>2024-04-06T08:45:54Z</time>
      </trkpt>
      <trkpt lat="43.44151" lon="2.07686">
        <ele>544</ele>
        <time>2024-04-06T08:46:19Z</time>
      </trkpt>
      <trkpt lat="43.44164" lon="2.07708">
        <ele>542</ele>
        <time>2024-04-06T08:46:36Z</time>
      </trkpt>
      <trkpt lat="43.44164" lon="2.0771">
        <ele>541</ele>
        <time>2024-04-06T08:46:37Z</time>
      </trkpt>
      <trkpt lat="43.44164" lon="2.07715">
        <ele>540</ele>
        <time>2024-04-06T08:46:40Z</time>
      </trkpt>
      <trkpt lat="43.44167" lon="2.07724">
        <ele>539</ele>
        <time>2024-04-06T08:46:46Z</time>
      </trkpt>
      <trkpt lat="43.44167" lon="2.07728">
        <ele>538</ele>
        <time>2024-04-06T08:46:48Z</time>
      </trkpt>
      <trkpt lat="43.44156" lon="2.07722">
        <ele>538</ele>
        <time>2024-04-06T08:46:58Z</time>
      </trkpt>
      <trkpt lat="43.44145" lon="2.0772">
        <ele>537</ele>
        <time>2024-04-06T08:47:06Z</time>
      </trkpt>
      <trkpt lat="43.44101" lon="2.07725">
        <ele>531</ele>
        <time>2024-04-06T08:47:42Z</time>
      </trkpt>
      <trkpt lat="43.44095" lon="2.07728">
        <ele>530</ele>
        <time>2024-04-06T08:47:47Z</time>
      </trkpt>
      <trkpt lat="43.44067" lon="2.07748">
        <ele>529</ele>
        <time>2024-04-06T08:48:12Z</time>
      </trkpt>
      <trkpt lat="43.44033" lon="2.0776">
        <ele>529</ele>
        <time>2024-04-06T08:48:40Z</time>
      </trkpt>
      <trkpt lat="43.44019" lon="2.07767">
        <ele>529</ele>
        <time>2024-04-06T08:48:52Z</time>
      </trkpt>
      <trkpt lat="43.44004" lon="2.07778">
        <ele>530</ele>
        <time>2024-04-06T08:49:06Z</time>
      </trkpt>
      <trkpt lat="43.43999" lon="2.07788">
        <ele>531</ele>
        <time>2024-04-06T08:49:13Z</time>
      </trkpt>
      <trkpt lat="43.43997" lon="2.07798">
        <ele>531</ele>
        <time>2024-04-06T08:49:19Z</time>
      </trkpt>
      <trkpt lat="43.43993" lon="2.07805">
        <ele>531</ele>
        <time>2024-04-06T08:49:24Z</time>
      </trkpt>
      <trkpt lat="43.43978" lon="2.0782">
        <ele>532</ele>
        <time>2024-04-06T08:49:39Z</time>
      </trkpt>
      <trkpt lat="43.43972" lon="2.07823">
        <ele>533</ele>
        <time>2024-04-06T08:49:44Z</time>
      </trkpt>
      <trkpt lat="43.43962" lon="2.07822">
        <ele>533</ele>
        <time>2024-04-06T08:49:52Z</time>
      </trkpt>
      <trkpt lat="43.43949" lon="2.07815">
        <ele>531</ele>
        <time>2024-04-06T08:50:03Z</time>
      </trkpt>
      <trkpt lat="43.43944" lon="2.07816">
        <ele>532</ele>
        <time>2024-04-06T08:50:07Z</time>
      </trkpt>
      <trkpt lat="43.4394" lon="2.07819">
        <ele>532</ele>
        <time>2024-04-06T08:50:11Z</time>
      </trkpt>
      <trkpt lat="43.43931" lon="2.07832">
        <ele>535</ele>
        <time>2024-04-06T08:50:21Z</time>
      </trkpt>
      <trkpt lat="43.43914" lon="2.07845">
        <ele>535</ele>
        <time>2024-04-06T08:50:37Z</time>
      </trkpt>
      <trkpt lat="43.43907" lon="2.07847">
        <ele>535</ele>
        <time>2024-04-06T08:50:43Z</time>
      </trkpt>
      <trkpt lat="43.43899" lon="2.07848">
        <ele>535</ele>
        <time>2024-04-06T08:50:49Z</time>
      </trkpt>
      <trkpt lat="43.43875" lon="2.07841">
        <ele>534</ele>
        <time>2024-04-06T08:51:09Z</time>
      </trkpt>
      <trkpt lat="43.43867" lon="2.07841">
        <ele>533</ele>
        <time>2024-04-06T08:51:15Z</time>
      </trkpt>
      <trkpt lat="43.43861" lon="2.07846">
        <ele>533</ele>
        <time>2024-04-06T08:51:21Z</time>
      </trkpt>
      <trkpt lat="43.43856" lon="2.07856">
        <ele>534</ele>
        <time>2024-04-06T08:51:28Z</time>
      </trkpt>
      <trkpt lat="43.43846" lon="2.07888">
        <ele>536</ele>
        <time>2024-04-06T08:51:48Z</time>
      </trkpt>
      <trkpt lat="43.43843" lon="2.07907">
        <ele>538</ele>
        <time>2024-04-06T08:51:59Z</time>
      </trkpt>
      <trkpt lat="43.4384" lon="2.0792">
        <ele>539</ele>
        <time>2024-04-06T08:52:07Z</time>
      </trkpt>
      <trkpt lat="43.43815" lon="2.07908">
        <ele>540</ele>
        <time>2024-04-06T08:52:28Z</time>
      </trkpt>
      <trkpt lat="43.43742" lon="2.07847">
        <ele>529</ele>
        <time>2024-04-06T08:53:37Z</time>
      </trkpt>
      <trkpt lat="43.43715" lon="2.07829">
        <ele>523</ele>
        <time>2024-04-06T08:54:01Z</time>
      </trkpt>
      <trkpt lat="43.43712" lon="2.07825">
        <ele>522</ele>
        <time>2024-04-06T08:54:04Z</time>
      </trkpt>
      <trkpt lat="43.4371" lon="2.07816">
        <ele>518</ele>
        <time>2024-04-06T08:54:10Z</time>
      </trkpt>
      <trkpt lat="43.43714" lon="2.0781">
        <ele>516</ele>
        <time>2024-04-06T08:54:14Z</time>
      </trkpt>
      <trkpt lat="43.43741" lon="2.07804">
        <ele>515</ele>
        <time>2024-04-06T08:54:36Z</time>
      </trkpt>
      <trkpt lat="43.43764" lon="2.07786">
        <ele>509</ele>
        <time>2024-04-06T08:54:57Z</time>
      </trkpt>
      <trkpt lat="43.43788" lon="2.07753">
        <ele>498</ele>
        <time>2024-04-06T08:55:25Z</time>
      </trkpt>
      <trkpt lat="43.43786" lon="2.0775">
        <ele>497</ele>
        <time>2024-04-06T08:55:27Z</time>
      </trkpt>
      <trkpt lat="43.43786" lon="2.07749">
        <ele>497</ele>
        <time>2024-04-06T08:55:28Z</time>
      </trkpt>
      <trkpt lat="43.43742" lon="2.0776">
        <ele>498</ele>
        <time>2024-04-06T08:56:03Z</time>
      </trkpt>
      <trkpt lat="43.43703" lon="2.07774">
        <ele>502</ele>
        <time>2024-04-06T08:56:36Z</time>
      </trkpt>
      <trkpt lat="43.43665" lon="2.07776">
        <ele>501</ele>
        <time>2024-04-06T08:57:06Z</time>
      </trkpt>
      <trkpt lat="43.43645" lon="2.07774">
        <ele>501</ele>
        <time>2024-04-06T08:57:22Z</time>
      </trkpt>
      <trkpt lat="43.43622" lon="2.07765">
        <ele>499</ele>
        <time>2024-04-06T08:57:41Z</time>
      </trkpt>
      <trkpt lat="43.43596" lon="2.07749">
        <ele>495</ele>
        <time>2024-04-06T08:58:04Z</time>
      </trkpt>
      <trkpt lat="43.43566" lon="2.07726">
        <ele>488</ele>
        <time>2024-04-06T08:58:32Z</time>
      </trkpt>
      <trkpt lat="43.43554" lon="2.07697">
        <ele>479</ele>
        <time>2024-04-06T08:58:51Z</time>
      </trkpt>
      <trkpt lat="43.43538" lon="2.07675">
        <ele>473</ele>
        <time>2024-04-06T08:59:09Z</time>
      </trkpt>
      <trkpt lat="43.43542" lon="2.07666">
        <ele>469</ele>
        <time>2024-04-06T08:59:15Z</time>
      </trkpt>
      <trkpt lat="43.43549" lon="2.0767">
        <ele>469</ele>
        <time>2024-04-06T08:59:21Z</time>
      </trkpt>
      <trkpt lat="43.43567" lon="2.07688">
        <ele>473</ele>
        <time>2024-04-06T08:59:39Z</time>
      </trkpt>
      <trkpt lat="43.43592" lon="2.07708">
        <ele>478</ele>
        <time>2024-04-06T09:00:02Z</time>
      </trkpt>
      <trkpt lat="43.43626" lon="2.07723">
        <ele>481</ele>
        <time>2024-04-06T09:00:31Z</time>
      </trkpt>
      <trkpt lat="43.43656" lon="2.07727">
        <ele>480</ele>
        <time>2024-04-06T09:00:55Z</time>
      </trkpt>
      <trkpt lat="43.43687" lon="2.07725">
        <ele>480</ele>
        <time>2024-04-06T09:01:20Z</time>
      </trkpt>
      <trkpt lat="43.43719" lon="2.07716">
        <ele>479</ele>
        <time>2024-04-06T09:01:46Z</time>
      </trkpt>
      <trkpt lat="43.43755" lon="2.07697">
        <ele>474</ele>
        <time>2024-04-06T09:02:17Z</time>
      </trkpt>
      <trkpt lat="43.4377" lon="2.07693">
        <ele>474</ele>
        <time>2024-04-06T09:02:29Z</time>
      </trkpt>
      <trkpt lat="43.43777" lon="2.07685">
        <ele>471</ele>
        <time>2024-04-06T09:02:36Z</time>
      </trkpt>
      <trkpt lat="43.43784" lon="2.0767">
        <ele>466</ele>
        <time>2024-04-06T09:02:47Z</time>
      </trkpt>
      <trkpt lat="43.43788" lon="2.07651">
        <ele>459</ele>
        <time>2024-04-06T09:02:58Z</time>
      </trkpt>
      <trkpt lat="43.43786" lon="2.07621">
        <ele>448</ele>
        <time>2024-04-06T09:03:16Z</time>
      </trkpt>
      <trkpt lat="43.43789" lon="2.07612">
        <ele>445</ele>
        <time>2024-04-06T09:03:22Z</time>
      </trkpt>
      <trkpt lat="43.43784" lon="2.07609">
        <ele>443</ele>
        <time>2024-04-06T09:03:26Z</time>
      </trkpt>
      <trkpt lat="43.4377" lon="2.0763">
        <ele>449</ele>
        <time>2024-04-06T09:03:42Z</time>
      </trkpt>
      <trkpt lat="43.4375" lon="2.07633">
        <ele>448</ele>
        <time>2024-04-06T09:03:59Z</time>
      </trkpt>
      <trkpt lat="43.4374" lon="2.07644">
        <ele>451</ele>
        <time>2024-04-06T09:04:09Z</time>
      </trkpt>
      <trkpt lat="43.43727" lon="2.07646">
        <ele>450</ele>
        <time>2024-04-06T09:04:19Z</time>
      </trkpt>
      <trkpt lat="43.4371" lon="2.07665">
        <ele>456</ele>
        <time>2024-04-06T09:04:37Z</time>
      </trkpt>
      <trkpt lat="43.43698" lon="2.07669">
        <ele>456</ele>
        <time>2024-04-06T09:04:47Z</time>
      </trkpt>
      <trkpt lat="43.43631" lon="2.07674">
        <ele>459</ele>
        <time>2024-04-06T09:05:40Z</time>
      </trkpt>
      <trkpt lat="43.43615" lon="2.07669">
        <ele>459</ele>
        <time>2024-04-06T09:05:54Z</time>
      </trkpt>
      <trkpt lat="43.43601" lon="2.07658">
        <ele>457</ele>
        <time>2024-04-06T09:06:06Z</time>
      </trkpt>
      <trkpt lat="43.43584" lon="2.07613">
        <ele>442</ele>
        <time>2024-04-06T09:06:36Z</time>
      </trkpt>
      <trkpt lat="43.43571" lon="2.07574">
        <ele>430</ele>
        <time>2024-04-06T09:07:01Z</time>
      </trkpt>
      <trkpt lat="43.43536" lon="2.07547">
        <ele>425</ele>
        <time>2024-04-06T09:07:33Z</time>
      </trkpt>
      <trkpt lat="43.43508" lon="2.07522">
        <ele>421</ele>
        <time>2024-04-06T09:08:00Z</time>
      </trkpt>
      <trkpt lat="43.43491" lon="2.07464">
        <ele>401</ele>
        <time>2024-04-06T09:08:36Z</time>
      </trkpt>
      <trkpt lat="43.43491" lon="2.0745">
        <ele>396</ele>
        <time>2024-04-06T09:08:44Z</time>
      </trkpt>
      <trkpt lat="43.43469" lon="2.07419">
        <ele>384</ele>
        <time>2024-04-06T09:09:09Z</time>
      </trkpt>
      <trkpt lat="43.43466" lon="2.07411">
        <ele>381</ele>
        <time>2024-04-06T09:09:15Z</time>
      </trkpt>
      <trkpt lat="43.43467" lon="2.07408">
        <ele>380</ele>
        <time>2024-04-06T09:09:17Z</time>
      </trkpt>
      <trkpt lat="43.4349" lon="2.07406">
        <ele>381</ele>
        <time>2024-04-06T09:09:35Z</time>
      </trkpt>
      <trkpt lat="43.43497" lon="2.07402">
        <ele>380</ele>
        <time>2024-04-06T09:09:41Z</time>
      </trkpt>
      <trkpt lat="43.435" lon="2.07394">
        <ele>378</ele>
        <time>2024-04-06T09:09:46Z</time>
      </trkpt>
      <trkpt lat="43.43499" lon="2.07388">
        <ele>375</ele>
        <time>2024-04-06T09:09:50Z</time>
      </trkpt>
      <trkpt lat="43.43482" lon="2.07371">
        <ele>367</ele>
        <time>2024-04-06T09:10:07Z</time>
      </trkpt>
      <trkpt lat="43.43477" lon="2.07361">
        <ele>363</ele>
        <time>2024-04-06T09:10:14Z</time>
      </trkpt>
      <trkpt lat="43.43477" lon="2.07355">
        <ele>361</ele>
        <time>2024-04-06T09:10:17Z</time>
      </trkpt>
      <trkpt lat="43.43482" lon="2.07348">
        <ele>359</ele>
        <time>2024-04-06T09:10:23Z</time>
      </trkpt>
      <trkpt lat="43.43503" lon="2.07339">
        <ele>356</ele>
        <time>2024-04-06T09:10:41Z</time>
      </trkpt>
      <trkpt lat="43.43515" lon="2.07342">
        <ele>355</ele>
        <time>2024-04-06T09:10:50Z</time>
      </trkpt>
      <trkpt lat="43.43519" lon="2.07339">
        <ele>353</ele>
        <time>2024-04-06T09:10:54Z</time>
      </trkpt>
      <trkpt lat="43.4352" lon="2.07336">
        <ele>352</ele>
        <time>2024-04-06T09:10:56Z</time>
      </trkpt>
      <trkpt lat="43.43513" lon="2.07323">
        <ele>349</ele>
        <time>2024-04-06T09:11:05Z</time>
      </trkpt>
      <trkpt lat="43.43485" lon="2.07318">
        <ele>349</ele>
        <time>2024-04-06T09:11:28Z</time>
      </trkpt>
      <trkpt lat="43.43467" lon="2.0731">
        <ele>345</ele>
        <time>2024-04-06T09:11:43Z</time>
      </trkpt>
      <trkpt lat="43.43441" lon="2.07303">
        <ele>341</ele>
        <time>2024-04-06T09:12:04Z</time>
      </trkpt>
      <trkpt lat="43.43426" lon="2.07305">
        <ele>341</ele>
        <time>2024-04-06T09:12:16Z</time>
      </trkpt>
      <trkpt lat="43.43405" lon="2.07323">
        <ele>342</ele>
        <time>2024-04-06T09:12:36Z</time>
      </trkpt>
      <trkpt lat="43.43402" lon="2.07324">
        <ele>342</ele>
        <time>2024-04-06T09:12:39Z</time>
      </trkpt>
      <trkpt lat="43.43399" lon="2.07323">
        <ele>341</ele>
        <time>2024-04-06T09:12:41Z</time>
      </trkpt>
      <trkpt lat="43.43397" lon="2.07317">
        <ele>339</ele>
        <time>2024-04-06T09:12:45Z</time>
      </trkpt>
      <trkpt lat="43.43401" lon="2.07301">
        <ele>336</ele>
        <time>2024-04-06T09:12:55Z</time>
      </trkpt>
      <trkpt lat="43.43411" lon="2.07271">
        <ele>330</ele>
        <time>2024-04-06T09:13:14Z</time>
      </trkpt>
      <trkpt lat="43.43425" lon="2.0726">
        <ele>329</ele>
        <time>2024-04-06T09:13:27Z</time>
      </trkpt>
      <trkpt lat="43.43523" lon="2.07215">
        <ele>316</ele>
        <time>2024-04-06T09:14:50Z</time>
      </trkpt>
      <trkpt lat="43.43521" lon="2.07215">
        <ele>316</ele>
        <time>2024-04-06T09:14:51Z</time>
      </trkpt>
      <trkpt lat="43.43557" lon="2.07218">
        <ele>312</ele>
        <time>2024-04-06T09:15:20Z</time>
      </trkpt>
      <trkpt lat="43.43573" lon="2.07216">
        <ele>310</ele>
        <time>2024-04-06T09:15:33Z</time>
      </trkpt>
      <trkpt lat="43.43592" lon="2.0721">
        <ele>308</ele>
        <time>2024-04-06T09:15:49Z</time>
      </trkpt>
      <trkpt lat="43.43623" lon="2.07197">
        <ele>305</ele>
        <time>2024-04-06T09:16:15Z</time>
      </trkpt>
      <trkpt lat="43.43646" lon="2.07182">
        <ele>303</ele>
        <time>2024-04-06T09:16:35Z</time>
      </trkpt>
      <trkpt lat="43.43747" lon="2.07085">
        <ele>298</ele>
        <time>2024-04-06T09:18:13Z</time>
      </trkpt>
      <trkpt lat="43.43781" lon="2.07032">
        <ele>301</ele>
        <time>2024-04-06T09:18:55Z</time>
      </trkpt>
      <trkpt lat="43.43783" lon="2.07034">
        <ele>301</ele>
        <time>2024-04-06T09:18:57Z</time>
      </trkpt>
      <trkpt lat="43.43781" lon="2.07032">
        <ele>301</ele>
        <time>2024-04-06T09:18:59Z</time>
      </trkpt>
      <trkpt lat="43.43815" lon="2.06959">
        <ele>299</ele>
        <time>2024-04-06T09:19:49Z</time>
      </trkpt>
      <trkpt lat="43.43817" lon="2.06939">
        <ele>298</ele>
        <time>2024-04-06T09:20:01Z</time>
      </trkpt>
      <trkpt lat="43.43812" lon="2.06919">
        <ele>298</ele>
        <time>2024-04-06T09:20:13Z</time>
      </trkpt>
      <trkpt lat="43.43812" lon="2.06894">
        <ele>298</ele>
        <time>2024-04-06T09:20:28Z</time>
      </trkpt>
      <trkpt lat="43.43823" lon="2.06739">
        <ele>292</ele>
        <time>2024-04-06T09:21:58Z</time>
      </trkpt>
      <trkpt lat="43.43824" lon="2.06705">
        <ele>291</ele>
        <time>2024-04-06T09:22:18Z</time>
      </trkpt>
      <trkpt lat="43.43827" lon="2.06687">
        <ele>289</ele>
        <time>2024-04-06T09:22:29Z</time>
      </trkpt>
      <trkpt lat="43.43835" lon="2.06681">
        <ele>286</ele>
        <time>2024-04-06T09:22:36Z</time>
      </trkpt>
      <trkpt lat="43.43851" lon="2.06683">
        <ele>287</ele>
        <time>2024-04-06T09:22:49Z</time>
      </trkpt>
      <trkpt lat="43.43851" lon="2.06672">
        <ele>286</ele>
        <time>2024-04-06T09:22:55Z</time>
      </trkpt>
      <trkpt lat="43.43855" lon="2.06665">
        <ele>286</ele>
        <time>2024-04-06T09:23:00Z</time>
      </trkpt>
      <trkpt lat="43.43943" lon="2.06551">
        <ele>284</ele>
        <time>2024-04-06T09:24:37Z</time>
      </trkpt>
    </trkseg>
  </trk>
</gpx>